sensor_id;sensor_type;location;lat;lon;timestamp;pressure;altitude;pressure_sealevel;temperature
84354;BMP280;74538;43.522;1.516;2024-02-23T00:01:36;99061.88;;;22.64
84354;BMP280;74538;43.522;1.516;2024-02-23T00:04:01;99060.44;;;22.63
84354;BMP280;74538;43.522;1.516;2024-02-23T00:06:28;99062.88;;;22.61
84354;BMP280;74538;43.522;1.516;2024-02-23T00:08:55;99059.41;;;22.61
84354;BMP280;74538;43.522;1.516;2024-02-23T00:11:21;99051.09;;;22.59
84354;BMP280;74538;43.522;1.516;2024-02-23T00:13:46;99053.06;;;22.58
84354;BMP280;74538;43.522;1.516;2024-02-23T00:16:12;99041.53;;;22.58
84354;BMP280;74538;43.522;1.516;2024-02-23T00:18:38;99046.19;;;22.57
84354;BMP280;74538;43.522;1.516;2024-02-23T00:21:04;99043.25;;;22.55
84354;BMP280;74538;43.522;1.516;2024-02-23T00:23:29;99037.59;;;22.53
84354;BMP280;74538;43.522;1.516;2024-02-23T00:25:55;99034.88;;;22.53
84354;BMP280;74538;43.522;1.516;2024-02-23T00:28:21;99027.31;;;22.52
84354;BMP280;74538;43.522;1.516;2024-02-23T00:30:46;99031.97;;;22.51
84354;BMP280;74538;43.522;1.516;2024-02-23T00:33:12;99018.94;;;22.50
84354;BMP280;74538;43.522;1.516;2024-02-23T00:35:38;99027.56;;;22.48
84354;BMP280;74538;43.522;1.516;2024-02-23T00:38:03;99032.22;;;22.48
84354;BMP280;74538;43.522;1.516;2024-02-23T00:40:29;99024.63;;;22.46
84354;BMP280;74538;43.522;1.516;2024-02-23T00:42:55;99018.44;;;22.46
84354;BMP280;74538;43.522;1.516;2024-02-23T00:45:20;99016.97;;;22.45
84354;BMP280;74538;43.522;1.516;2024-02-23T00:47:47;99014.78;;;22.43
84354;BMP280;74538;43.522;1.516;2024-02-23T00:50:13;99012.09;;;22.43
84354;BMP280;74538;43.522;1.516;2024-02-23T00:52:39;99017.25;;;22.41
84354;BMP280;74538;43.522;1.516;2024-02-23T00:55:06;99013.81;;;22.41
84354;BMP280;74538;43.522;1.516;2024-02-23T00:57:34;99009.66;;;22.40
84354;BMP280;74538;43.522;1.516;2024-02-23T01:00:00;99011.63;;;22.39
84354;BMP280;74538;43.522;1.516;2024-02-23T01:02:26;99005.94;;;22.37
84354;BMP280;74538;43.522;1.516;2024-02-23T01:04:52;98999.81;;;22.37
84354;BMP280;74538;43.522;1.516;2024-02-23T01:07:22;98996.16;;;22.34
84354;BMP280;74538;43.522;1.516;2024-02-23T01:09:48;98994.69;;;22.33
84354;BMP280;74538;43.522;1.516;2024-02-23T01:12:13;98993.22;;;22.32
84354;BMP280;74538;43.522;1.516;2024-02-23T01:14:39;98992.50;;;22.31
84354;BMP280;74538;43.522;1.516;2024-02-23T01:17:04;98989.50;;;22.29
84354;BMP280;74538;43.522;1.516;2024-02-23T01:19:30;98983.41;;;22.29
84354;BMP280;74538;43.522;1.516;2024-02-23T01:21:55;98979.97;;;22.28
84354;BMP280;74538;43.522;1.516;2024-02-23T01:24:27;98984.38;;;22.26
84354;BMP280;74538;43.522;1.516;2024-02-23T01:26:58;98991.75;;;22.25
84354;BMP280;74538;43.522;1.516;2024-02-23T01:29:25;98988.34;;;22.25
84354;BMP280;74538;43.522;1.516;2024-02-23T01:31:51;98992.25;;;22.24
84354;BMP280;74538;43.522;1.516;2024-02-23T01:34:17;99000.06;;;22.22
84354;BMP280;74538;43.522;1.516;2024-02-23T01:36:43;98983.88;;;22.22
84354;BMP280;74538;43.522;1.516;2024-02-23T01:39:09;98987.81;;;22.21
84354;BMP280;74538;43.522;1.516;2024-02-23T01:41:35;98990.28;;;22.19
84354;BMP280;74538;43.522;1.516;2024-02-23T01:44:00;98994.94;;;22.18
84354;BMP280;74538;43.522;1.516;2024-02-23T01:46:26;98988.81;;;22.18
84354;BMP280;74538;43.522;1.516;2024-02-23T01:48:52;98986.63;;;22.16
84354;BMP280;74538;43.522;1.516;2024-02-23T01:51:18;98989.78;;;22.15
84354;BMP280;74538;43.522;1.516;2024-02-23T01:53:44;98980.19;;;22.14
84354;BMP280;74538;43.522;1.516;2024-02-23T01:56:11;98976.06;;;22.13
84354;BMP280;74538;43.522;1.516;2024-02-23T01:58:37;98968.44;;;22.11
84354;BMP280;74538;43.522;1.516;2024-02-23T02:01:03;98966.25;;;22.10
84354;BMP280;74538;43.522;1.516;2024-02-23T02:03:28;98961.56;;;22.10
84354;BMP280;74538;43.522;1.516;2024-02-23T02:05:55;98958.63;;;22.08
84354;BMP280;74538;43.522;1.516;2024-02-23T02:08:25;98956.41;;;22.07
84354;BMP280;74538;43.522;1.516;2024-02-23T02:10:51;98956.41;;;22.07
84354;BMP280;74538;43.522;1.516;2024-02-23T02:13:16;98954.94;;;22.06
84354;BMP280;74538;43.522;1.516;2024-02-23T02:15:42;98953.50;;;22.05
84354;BMP280;74538;43.522;1.516;2024-02-23T02:18:09;98945.16;;;22.03
84354;BMP280;74538;43.522;1.516;2024-02-23T02:20:36;98938.31;;;22.02
84354;BMP280;74538;43.522;1.516;2024-02-23T02:23:02;98938.31;;;22.02
84354;BMP280;74538;43.522;1.516;2024-02-23T02:25:28;98934.59;;;21.99
84354;BMP280;74538;43.522;1.516;2024-02-23T02:27:54;98926.50;;;21.99
84354;BMP280;74538;43.522;1.516;2024-02-23T02:30:19;98929.94;;;22.00
84354;BMP280;74538;43.522;1.516;2024-02-23T02:32:45;98926.28;;;21.97
84354;BMP280;74538;43.522;1.516;2024-02-23T02:35:11;98920.16;;;21.97
84354;BMP280;74538;43.522;1.516;2024-02-23T02:37:37;98915.97;;;21.96
84354;BMP280;74538;43.522;1.516;2024-02-23T02:40:03;98915.75;;;21.93
84354;BMP280;74538;43.522;1.516;2024-02-23T02:42:30;98915.00;;;21.93
84354;BMP280;74538;43.522;1.516;2024-02-23T02:44:55;98908.88;;;21.92
84354;BMP280;74538;43.522;1.516;2024-02-23T02:47:21;98905.91;;;21.90
84354;BMP280;74538;43.522;1.516;2024-02-23T02:49:46;98902.47;;;21.90
84354;BMP280;74538;43.522;1.516;2024-02-23T02:52:12;98904.47;;;21.89
84354;BMP280;74538;43.522;1.516;2024-02-23T02:54:38;98886.09;;;21.88
84354;BMP280;74538;43.522;1.516;2024-02-23T02:57:03;98880.69;;;21.88
84354;BMP280;74538;43.522;1.516;2024-02-23T02:59:29;98877.25;;;21.87
84354;BMP280;74538;43.522;1.516;2024-02-23T03:01:54;98882.41;;;21.85
84354;BMP280;74538;43.522;1.516;2024-02-23T03:04:22;98878.22;;;21.84
84354;BMP280;74538;43.522;1.516;2024-02-23T03:06:47;98879.44;;;21.83
84354;BMP280;74538;43.522;1.516;2024-02-23T03:09:13;98877.97;;;21.82
84354;BMP280;74538;43.522;1.516;2024-02-23T03:11:38;98873.84;;;21.81
84354;BMP280;74538;43.522;1.516;2024-02-23T03:14:04;98877.75;;;21.80
84354;BMP280;74538;43.522;1.516;2024-02-23T03:16:29;98876.28;;;21.79
84354;BMP280;74538;43.522;1.516;2024-02-23T03:18:56;98878.25;;;21.79
84354;BMP280;74538;43.522;1.516;2024-02-23T03:21:22;98879.94;;;21.76
84354;BMP280;74538;43.522;1.516;2024-02-23T03:23:47;98878.00;;;21.77
84354;BMP280;74538;43.522;1.516;2024-02-23T03:26:13;98873.09;;;21.75
84354;BMP280;74538;43.522;1.516;2024-02-23T03:28:38;98882.38;;;21.74
84354;BMP280;74538;43.522;1.516;2024-02-23T03:31:04;98886.34;;;21.73
84354;BMP280;74538;43.522;1.516;2024-02-23T03:33:30;98880.22;;;21.73
84354;BMP280;74538;43.522;1.516;2024-02-23T03:35:57;98871.84;;;21.71
84354;BMP280;74538;43.522;1.516;2024-02-23T03:38:23;98871.84;;;21.71
84354;BMP280;74538;43.522;1.516;2024-02-23T03:40:48;98863.00;;;21.70
84354;BMP280;74538;43.522;1.516;2024-02-23T03:43:14;98857.41;;;21.68
84354;BMP280;74538;43.522;1.516;2024-02-23T03:45:39;98857.41;;;21.68
84354;BMP280;74538;43.522;1.516;2024-02-23T03:48:05;98850.53;;;21.67
84354;BMP280;74538;43.522;1.516;2024-02-23T03:50:31;98855.94;;;21.67
84354;BMP280;74538;43.522;1.516;2024-02-23T03:52:56;98843.69;;;21.66
84354;BMP280;74538;43.522;1.516;2024-02-23T03:55:22;98849.56;;;21.65
84354;BMP280;74538;43.522;1.516;2024-02-23T03:57:48;98840.00;;;21.64
84354;BMP280;74538;43.522;1.516;2024-02-23T04:00:14;98846.59;;;21.63
84354;BMP280;74538;43.522;1.516;2024-02-23T04:02:39;98837.78;;;21.62
84354;BMP280;74538;43.522;1.516;2024-02-23T04:05:06;98830.22;;;21.61
84354;BMP280;74538;43.522;1.516;2024-02-23T04:07:31;98824.09;;;21.60
84354;BMP280;74538;43.522;1.516;2024-02-23T04:09:57;98826.03;;;21.60
84354;BMP280;74538;43.522;1.516;2024-02-23T04:12:23;98821.88;;;21.59
84354;BMP280;74538;43.522;1.516;2024-02-23T04:14:48;98829.25;;;21.58
84354;BMP280;74538;43.522;1.516;2024-02-23T04:17:14;98834.38;;;21.56
84354;BMP280;74538;43.522;1.516;2024-02-23T04:19:41;98828.22;;;21.55
84354;BMP280;74538;43.522;1.516;2024-02-23T04:22:08;98837.53;;;21.54
84354;BMP280;74538;43.522;1.516;2024-02-23T04:24:38;98820.63;;;21.54
84354;BMP280;74538;43.522;1.516;2024-02-23T04:27:08;98817.72;;;21.52
84354;BMP280;74538;43.522;1.516;2024-02-23T04:29:34;98819.66;;;21.51
84354;BMP280;74538;43.522;1.516;2024-02-23T04:32:02;98825.56;;;21.50
84354;BMP280;74538;43.522;1.516;2024-02-23T04:34:28;98830.22;;;21.49
84354;BMP280;74538;43.522;1.516;2024-02-23T04:36:54;98819.91;;;21.48
84354;BMP280;74538;43.522;1.516;2024-02-23T04:39:20;98819.91;;;21.48
84354;BMP280;74538;43.522;1.516;2024-02-23T04:41:46;98826.50;;;21.47
84354;BMP280;74538;43.522;1.516;2024-02-23T04:44:12;98821.63;;;21.45
84354;BMP280;74538;43.522;1.516;2024-02-23T04:46:37;98812.81;;;21.45
84354;BMP280;74538;43.522;1.516;2024-02-23T04:49:03;98819.44;;;21.44
84354;BMP280;74538;43.522;1.516;2024-02-23T04:51:28;98817.97;;;21.43
84354;BMP280;74538;43.522;1.516;2024-02-23T04:53:54;98819.91;;;21.42
84354;BMP280;74538;43.522;1.516;2024-02-23T04:56:20;98823.13;;;21.41
84354;BMP280;74538;43.522;1.516;2024-02-23T04:58:46;98815.03;;;21.41
84354;BMP280;74538;43.522;1.516;2024-02-23T05:01:12;98810.84;;;21.40
84354;BMP280;74538;43.522;1.516;2024-02-23T05:03:37;98809.38;;;21.39
84354;BMP280;74538;43.522;1.516;2024-02-23T05:06:04;98811.84;;;21.37
84354;BMP280;74538;43.522;1.516;2024-02-23T05:08:30;98817.22;;;21.37
84354;BMP280;74538;43.522;1.516;2024-02-23T05:10:56;98810.38;;;21.36
84354;BMP280;74538;43.522;1.516;2024-02-23T05:13:22;98815.03;;;21.35
84354;BMP280;74538;43.522;1.516;2024-02-23T05:15:48;98813.53;;;21.34
84354;BMP280;74538;43.522;1.516;2024-02-23T05:18:13;98807.44;;;21.34
84354;BMP280;74538;43.522;1.516;2024-02-23T05:20:39;98810.59;;;21.32
84354;BMP280;74538;43.522;1.516;2024-02-23T05:23:05;98819.16;;;21.31
84354;BMP280;74538;43.522;1.516;2024-02-23T05:25:30;98806.94;;;21.30
84354;BMP280;74538;43.522;1.516;2024-02-23T05:27:56;98803.50;;;21.29
84354;BMP280;74538;43.522;1.516;2024-02-23T05:30:21;98800.09;;;21.29
84354;BMP280;74538;43.522;1.516;2024-02-23T05:32:47;98804.00;;;21.28
84354;BMP280;74538;43.522;1.516;2024-02-23T05:35:13;98807.91;;;21.27
84354;BMP280;74538;43.522;1.516;2024-02-23T05:37:38;98808.66;;;21.27
84354;BMP280;74538;43.522;1.516;2024-02-23T05:40:04;98810.34;;;21.25
84354;BMP280;74538;43.522;1.516;2024-02-23T05:42:36;98803.50;;;21.24
84354;BMP280;74538;43.522;1.516;2024-02-23T05:45:02;98812.06;;;21.22
84354;BMP280;74538;43.522;1.516;2024-02-23T05:47:32;98808.66;;;21.22
84354;BMP280;74538;43.522;1.516;2024-02-23T05:49:58;98812.56;;;21.21
84354;BMP280;74538;43.522;1.516;2024-02-23T05:52:23;98807.19;;;21.21
84354;BMP280;74538;43.522;1.516;2024-02-23T05:54:49;98808.41;;;21.20
84354;BMP280;74538;43.522;1.516;2024-02-23T05:57:14;98806.91;;;21.18
84354;BMP280;74538;43.522;1.516;2024-02-23T05:59:40;98817.44;;;21.16
84354;BMP280;74538;43.522;1.516;2024-02-23T06:02:05;98807.41;;;21.17
84354;BMP280;74538;43.522;1.516;2024-02-23T06:04:31;98801.75;;;21.15
84354;BMP280;74538;43.522;1.516;2024-02-23T06:06:57;98806.41;;;21.14
84354;BMP280;74538;43.522;1.516;2024-02-23T06:09:22;98805.44;;;21.12
84354;BMP280;74538;43.522;1.516;2024-02-23T06:11:48;98815.00;;;21.13
84354;BMP280;74538;43.522;1.516;2024-02-23T06:14:14;98809.63;;;21.13
84354;BMP280;74538;43.522;1.516;2024-02-23T06:16:39;98812.31;;;21.13
84354;BMP280;74538;43.522;1.516;2024-02-23T06:19:06;98810.09;;;21.11
84354;BMP280;74538;43.522;1.516;2024-02-23T06:21:31;98812.78;;;21.11
84354;BMP280;74538;43.522;1.516;2024-02-23T06:23:57;98811.28;;;21.10
84354;BMP280;74538;43.522;1.516;2024-02-23T06:26:23;98815.94;;;21.10
84354;BMP280;74538;43.522;1.516;2024-02-23T06:28:48;98812.53;;;21.09
84354;BMP280;74538;43.522;1.516;2024-02-23T06:31:14;98813.75;;;21.08
84354;BMP280;74538;43.522;1.516;2024-02-23T06:33:39;98808.38;;;21.08
84354;BMP280;74538;43.522;1.516;2024-02-23T06:36:06;98806.16;;;21.07
84354;BMP280;74538;43.522;1.516;2024-02-23T06:38:32;98811.56;;;21.07
84354;BMP280;74538;43.522;1.516;2024-02-23T06:40:57;98814.75;;;21.05
84354;BMP280;74538;43.522;1.516;2024-02-23T06:43:23;98814.75;;;21.05
84354;BMP280;74538;43.522;1.516;2024-02-23T06:45:49;98803.97;;;21.05
84354;BMP280;74538;43.522;1.516;2024-02-23T06:48:14;98802.50;;;21.04
84354;BMP280;74538;43.522;1.516;2024-02-23T06:50:40;98807.91;;;21.04
84354;BMP280;74538;43.522;1.516;2024-02-23T06:53:05;98807.91;;;21.04
84354;BMP280;74538;43.522;1.516;2024-02-23T06:55:32;98812.53;;;21.04
84354;BMP280;74538;43.522;1.516;2024-02-23T06:57:58;98809.13;;;21.03
84354;BMP280;74538;43.522;1.516;2024-02-23T07:00:23;98814.50;;;21.03
84354;BMP280;74538;43.522;1.516;2024-02-23T07:02:49;98818.66;;;21.04
84354;BMP280;74538;43.522;1.516;2024-02-23T07:05:15;98818.66;;;21.04
84354;BMP280;74538;43.522;1.516;2024-02-23T07:07:40;98827.72;;;21.07
84354;BMP280;74538;43.522;1.516;2024-02-23T07:10:07;98831.41;;;21.09
84354;BMP280;74538;43.522;1.516;2024-02-23T07:12:33;98836.56;;;21.13
84354;BMP280;74538;43.522;1.516;2024-02-23T07:14:59;98836.28;;;21.16
84354;BMP280;74538;43.522;1.516;2024-02-23T07:17:24;98841.47;;;21.20
84354;BMP280;74538;43.522;1.516;2024-02-23T07:19:50;98850.03;;;21.24
84354;BMP280;74538;43.522;1.516;2024-02-23T07:22:17;98845.13;;;21.28
84354;BMP280;74538;43.522;1.516;2024-02-23T07:24:48;98843.66;;;21.33
84354;BMP280;74538;43.522;1.516;2024-02-23T07:27:14;98833.41;;;21.37
84354;BMP280;74538;43.522;1.516;2024-02-23T07:29:40;98843.19;;;21.40
84354;BMP280;74538;43.522;1.516;2024-02-23T07:32:06;98848.59;;;21.45
84354;BMP280;74538;43.522;1.516;2024-02-23T07:34:31;98834.16;;;21.48
84354;BMP280;74538;43.522;1.516;2024-02-23T07:36:57;98831.94;;;21.52
84354;BMP280;74538;43.522;1.516;2024-02-23T07:39:23;98833.16;;;21.57
84354;BMP280;74538;43.522;1.516;2024-02-23T07:41:48;98835.59;;;21.61
84354;BMP280;74538;43.522;1.516;2024-02-23T07:44:14;98826.06;;;21.65
84354;BMP280;74538;43.522;1.516;2024-02-23T07:46:40;98830.44;;;21.68
84354;BMP280;74538;43.522;1.516;2024-02-23T07:49:07;98830.94;;;21.72
84354;BMP280;74538;43.522;1.516;2024-02-23T07:51:32;98836.81;;;21.76
84354;BMP280;74538;43.522;1.516;2024-02-23T07:53:58;98837.31;;;21.80
84354;BMP280;74538;43.522;1.516;2024-02-23T07:56:23;98834.34;;;21.84
84354;BMP280;74538;43.522;1.516;2024-02-23T07:58:49;98831.41;;;21.87
84354;BMP280;74538;43.522;1.516;2024-02-23T08:01:14;98818.41;;;21.91
84354;BMP280;74538;43.522;1.516;2024-02-23T08:03:40;98813.50;;;21.96
84354;BMP280;74538;43.522;1.516;2024-02-23T08:06:06;98801.72;;;21.99
84354;BMP280;74538;43.522;1.516;2024-02-23T08:08:32;98799.50;;;22.03
84354;BMP280;74538;43.522;1.516;2024-02-23T08:11:04;98805.38;;;22.07
84354;BMP280;74538;43.522;1.516;2024-02-23T08:13:30;98815.44;;;22.12
84354;BMP280;74538;43.522;1.516;2024-02-23T08:15:58;98823.53;;;22.17
84354;BMP280;74538;43.522;1.516;2024-02-23T08:18:24;98824.69;;;22.22
84354;BMP280;74538;43.522;1.516;2024-02-23T08:20:51;98819.78;;;22.26
84354;BMP280;74538;43.522;1.516;2024-02-23T08:23:17;98806.03;;;22.29
84354;BMP280;74538;43.522;1.516;2024-02-23T08:25:44;98816.81;;;22.35
84354;BMP280;74538;43.522;1.516;2024-02-23T08:28:10;98826.88;;;22.40
84354;BMP280;74538;43.522;1.516;2024-02-23T08:30:35;98823.38;;;22.45
84354;BMP280;74538;43.522;1.516;2024-02-23T08:33:01;98813.06;;;22.49
84354;BMP280;74538;43.522;1.516;2024-02-23T08:35:26;98837.81;;;22.53
84354;BMP280;74538;43.522;1.516;2024-02-23T08:37:52;98832.19;;;22.57
84354;BMP280;74538;43.522;1.516;2024-02-23T08:40:17;98827.25;;;22.61
84354;BMP280;74538;43.522;1.516;2024-02-23T08:42:43;98825.75;;;22.65
84354;BMP280;74538;43.522;1.516;2024-02-23T08:45:09;98826.25;;;22.69
84354;BMP280;74538;43.522;1.516;2024-02-23T08:47:37;98836.28;;;22.75
84354;BMP280;74538;43.522;1.516;2024-02-23T08:50:03;98838.72;;;22.78
84354;BMP280;74538;43.522;1.516;2024-02-23T08:52:29;98845.28;;;22.83
84354;BMP280;74538;43.522;1.516;2024-02-23T08:54:55;98839.63;;;22.86
84354;BMP280;74538;43.522;1.516;2024-02-23T08:57:21;98839.38;;;22.90
84354;BMP280;74538;43.522;1.516;2024-02-23T08:59:48;98841.31;;;22.95
84354;BMP280;74538;43.522;1.516;2024-02-23T09:02:14;98847.19;;;22.99
84354;BMP280;74538;43.522;1.516;2024-02-23T09:04:39;98854.28;;;23.02
84354;BMP280;74538;43.522;1.516;2024-02-23T09:07:06;98857.69;;;23.08
84354;BMP280;74538;43.522;1.516;2024-02-23T09:09:32;98858.16;;;23.12
84354;BMP280;74538;43.522;1.516;2024-02-23T09:11:57;98851.25;;;23.17
84354;BMP280;74538;43.522;1.516;2024-02-23T09:14:23;98847.03;;;23.21
84354;BMP280;74538;43.522;1.516;2024-02-23T09:16:51;98840.63;;;23.24
84354;BMP280;74538;43.522;1.516;2024-02-23T09:19:18;98847.97;;;23.29
84354;BMP280;74538;43.522;1.516;2024-02-23T09:21:44;98843.00;;;23.33
84354;BMP280;74538;43.522;1.516;2024-02-23T09:24:10;98848.16;;;23.37
84354;BMP280;74538;43.522;1.516;2024-02-23T09:26:36;98848.09;;;23.42
84354;BMP280;74538;43.522;1.516;2024-02-23T09:29:01;98845.84;;;23.46
84354;BMP280;74538;43.522;1.516;2024-02-23T09:31:27;98838.72;;;23.49
84354;BMP280;74538;43.522;1.516;2024-02-23T09:33:54;98848.00;;;23.54
84354;BMP280;74538;43.522;1.516;2024-02-23T09:36:20;98840.34;;;23.58
84354;BMP280;74538;43.522;1.516;2024-02-23T09:38:47;98851.63;;;23.62
84354;BMP280;74538;43.522;1.516;2024-02-23T09:41:21;98846.94;;;23.68
84354;BMP280;74538;43.522;1.516;2024-02-23T09:43:48;98854.00;;;23.71
84354;BMP280;74538;43.522;1.516;2024-02-23T09:46:18;98848.53;;;23.76
84354;BMP280;74538;43.522;1.516;2024-02-23T09:48:44;98848.25;;;23.80
84354;BMP280;74538;43.522;1.516;2024-02-23T09:51:12;98846.00;;;23.84
84354;BMP280;74538;43.522;1.516;2024-02-23T09:53:38;98856.53;;;23.87
84354;BMP280;74538;43.522;1.516;2024-02-23T09:56:05;98855.78;;;23.93
84354;BMP280;74538;43.522;1.516;2024-02-23T09:58:32;98856.72;;;23.95
84354;BMP280;74538;43.522;1.516;2024-02-23T10:00:58;98842.41;;;24.00
84354;BMP280;74538;43.522;1.516;2024-02-23T10:03:26;98855.16;;;24.05
84354;BMP280;74538;43.522;1.516;2024-02-23T10:05:54;98852.88;;;24.09
84354;BMP280;74538;43.522;1.516;2024-02-23T10:08:20;98861.47;;;24.13
84354;BMP280;74538;43.522;1.516;2024-02-23T10:10:46;98865.84;;;24.16
84354;BMP280;74538;43.522;1.516;2024-02-23T10:13:12;98854.75;;;24.20
84354;BMP280;74538;43.522;1.516;2024-02-23T10:15:38;98877.56;;;24.24
84354;BMP280;74538;43.522;1.516;2024-02-23T10:18:04;98875.09;;;24.26
84354;BMP280;74538;43.522;1.516;2024-02-23T10:20:30;98889.78;;;24.31
84354;BMP280;74538;43.522;1.516;2024-02-23T10:22:56;98885.59;;;24.36
84354;BMP280;74538;43.522;1.516;2024-02-23T10:25:22;98886.00;;;24.40
84354;BMP280;74538;43.522;1.516;2024-02-23T10:27:48;98877.59;;;24.43
84354;BMP280;74538;43.522;1.516;2024-02-23T10:30:13;98882.00;;;24.46
84354;BMP280;74538;43.522;1.516;2024-02-23T10:32:42;98883.16;;;24.51
84354;BMP280;74538;43.522;1.516;2024-02-23T10:35:15;98880.88;;;24.55
84354;BMP280;74538;43.522;1.516;2024-02-23T10:37:48;98885.28;;;24.58
84354;BMP280;74538;43.522;1.516;2024-02-23T10:40:16;98889.66;;;24.61
84354;BMP280;74538;43.522;1.516;2024-02-23T10:42:46;98875.84;;;24.64
84354;BMP280;74538;43.522;1.516;2024-02-23T10:45:20;98889.31;;;24.70
84354;BMP280;74538;43.522;1.516;2024-02-23T10:47:48;98893.72;;;24.73
84354;BMP280;74538;43.522;1.516;2024-02-23T10:50:14;98887.28;;;24.76
84354;BMP280;74538;43.522;1.516;2024-02-23T10:52:42;98896.34;;;24.79
84354;BMP280;74538;43.522;1.516;2024-02-23T10:55:10;98890.44;;;24.80
84354;BMP280;74538;43.522;1.516;2024-02-23T10:57:36;98887.72;;;24.80
84354;BMP280;74538;43.522;1.516;2024-02-23T11:00:03;98874.91;;;24.81
84354;BMP280;74538;43.522;1.516;2024-02-23T11:02:37;98881.06;;;24.81
84354;BMP280;74538;43.522;1.516;2024-02-23T11:05:04;98885.00;;;24.80
84354;BMP280;74538;43.522;1.516;2024-02-23T11:07:30;98888.47;;;24.81
84354;BMP280;74538;43.522;1.516;2024-02-23T11:09:59;98886.25;;;24.79
84354;BMP280;74538;43.522;1.516;2024-02-23T11:12:25;98890.22;;;24.78
84354;BMP280;74538;43.522;1.516;2024-02-23T11:14:51;98892.69;;;24.76
84354;BMP280;74538;43.522;1.516;2024-02-23T11:17:21;98896.63;;;24.75
84354;BMP280;74538;43.522;1.516;2024-02-23T11:19:49;98906.53;;;24.73
84354;BMP280;74538;43.522;1.516;2024-02-23T11:22:26;98902.88;;;24.70
84354;BMP280;74538;43.522;1.516;2024-02-23T11:24:52;98907.34;;;24.67
84354;BMP280;74538;43.522;1.516;2024-02-23T11:27:18;98908.34;;;24.64
84354;BMP280;74538;43.522;1.516;2024-02-23T11:29:47;98892.38;;;24.61
84354;BMP280;74538;43.522;1.516;2024-02-23T11:32:16;98888.75;;;24.58
84354;BMP280;74538;43.522;1.516;2024-02-23T11:34:54;98886.56;;;24.57
84354;BMP280;74538;43.522;1.516;2024-02-23T11:37:23;98892.25;;;24.53
84354;BMP280;74538;43.522;1.516;2024-02-23T11:39:49;98891.28;;;24.51
84354;BMP280;74538;43.522;1.516;2024-02-23T11:42:15;98893.78;;;24.49
84354;BMP280;74538;43.522;1.516;2024-02-23T11:44:41;98892.81;;;24.46
84354;BMP280;74538;43.522;1.516;2024-02-23T11:47:07;98899.25;;;24.43
84354;BMP280;74538;43.522;1.516;2024-02-23T11:49:33;98895.56;;;24.41
84354;BMP280;74538;43.522;1.516;2024-02-23T11:51:59;98882.56;;;24.39
84354;BMP280;74538;43.522;1.516;2024-02-23T11:54:24;98884.84;;;24.35
84354;BMP280;74538;43.522;1.516;2024-02-23T11:56:50;98883.16;;;24.32
84354;BMP280;74538;43.522;1.516;2024-02-23T11:59:19;98887.38;;;24.27
84354;BMP280;74538;43.522;1.516;2024-02-23T12:01:46;98884.22;;;24.23
84354;BMP280;74538;43.522;1.516;2024-02-23T12:04:14;98886.00;;;24.21
84354;BMP280;74538;43.522;1.516;2024-02-23T12:06:40;98880.84;;;24.17
84354;BMP280;74538;43.522;1.516;2024-02-23T12:09:06;98890.69;;;24.15
84354;BMP280;74538;43.522;1.516;2024-02-23T12:11:31;98876.00;;;24.10
84354;BMP280;74538;43.522;1.516;2024-02-23T12:13:57;98879.72;;;24.07
84354;BMP280;74538;43.522;1.516;2024-02-23T12:16:23;98863.03;;;24.03
84354;BMP280;74538;43.522;1.516;2024-02-23T12:18:55;98865.50;;;24.01
84354;BMP280;74538;43.522;1.516;2024-02-23T12:21:23;98869.25;;;23.98
84354;BMP280;74538;43.522;1.516;2024-02-23T12:23:49;98848.13;;;23.97
84354;BMP280;74538;43.522;1.516;2024-02-23T12:26:17;98849.84;;;23.94
84354;BMP280;74538;43.522;1.516;2024-02-23T12:28:43;98842.53;;;23.89
84354;BMP280;74538;43.522;1.516;2024-02-23T12:31:10;98857.28;;;23.88
84354;BMP280;74538;43.522;1.516;2024-02-23T12:33:39;98842.81;;;23.85
84354;BMP280;74538;43.522;1.516;2024-02-23T12:36:06;98844.53;;;23.83
84354;BMP280;74538;43.522;1.516;2024-02-23T12:38:32;98839.13;;;23.83
84354;BMP280;74538;43.522;1.516;2024-02-23T12:40:59;98835.19;;;23.84
84354;BMP280;74538;43.522;1.516;2024-02-23T12:43:25;98823.34;;;23.87
84354;BMP280;74538;43.522;1.516;2024-02-23T12:45:54;98823.06;;;23.91
84354;BMP280;74538;43.522;1.516;2024-02-23T12:48:21;98824.03;;;23.93
84354;BMP280;74538;43.522;1.516;2024-02-23T12:50:47;98821.28;;;23.99
84354;BMP280;74538;43.522;1.516;2024-02-23T12:55:58;98819.97;;;24.05
84354;BMP280;74538;43.522;1.516;2024-02-23T12:58:24;98828.53;;;24.09
84354;BMP280;74538;43.522;1.516;2024-02-23T13:00:49;98818.66;;;24.12
84354;BMP280;74538;43.522;1.516;2024-02-23T13:03:15;98812.22;;;24.15
84354;BMP280;74538;43.522;1.516;2024-02-23T13:05:40;98799.66;;;24.17
84354;BMP280;74538;43.522;1.516;2024-02-23T13:08:06;98805.28;;;24.19
84354;BMP280;74538;43.522;1.516;2024-02-23T13:10:31;98807.69;;;24.23
84354;BMP280;74538;43.522;1.516;2024-02-23T13:12:57;98801.25;;;24.26
84354;BMP280;74538;43.522;1.516;2024-02-23T13:15:23;98786.00;;;24.28
84354;BMP280;74538;43.522;1.516;2024-02-23T13:17:48;98778.31;;;24.33
84354;BMP280;74538;43.522;1.516;2024-02-23T13:20:14;98773.13;;;24.35
84354;BMP280;74538;43.522;1.516;2024-02-23T13:22:39;98770.09;;;24.38
84354;BMP280;74538;43.522;1.516;2024-02-23T13:25:05;98769.81;;;24.42
84354;BMP280;74538;43.522;1.516;2024-02-23T13:27:31;98776.91;;;24.45
84354;BMP280;74538;43.522;1.516;2024-02-23T13:29:57;98768.97;;;24.47
84354;BMP280;74538;43.522;1.516;2024-02-23T13:32:22;98763.28;;;24.50
84354;BMP280;74538;43.522;1.516;2024-02-23T13:34:48;98760.25;;;24.54
84354;BMP280;74538;43.522;1.516;2024-02-23T13:37:17;98758.00;;;24.58
84354;BMP280;74538;43.522;1.516;2024-02-23T13:39:43;98753.53;;;24.60
84354;BMP280;74538;43.522;1.516;2024-02-23T13:42:09;98753.75;;;24.62
84354;BMP280;74538;43.522;1.516;2024-02-23T13:44:35;98758.16;;;24.65
84354;BMP280;74538;43.522;1.516;2024-02-23T13:47:01;98741.59;;;24.69
84354;BMP280;74538;43.522;1.516;2024-02-23T13:49:27;98746.19;;;24.74
84354;BMP280;74538;43.522;1.516;2024-02-23T13:51:53;98736.81;;;24.75
84354;BMP280;74538;43.522;1.516;2024-02-23T13:54:19;98739.97;;;24.79
84354;BMP280;74538;43.522;1.516;2024-02-23T13:56:44;98734.22;;;24.83
84354;BMP280;74538;43.522;1.516;2024-02-23T13:59:10;98728.50;;;24.86
84354;BMP280;74538;43.522;1.516;2024-02-23T14:01:36;98726.03;;;24.88
84354;BMP280;74538;43.522;1.516;2024-02-23T14:04:06;98723.72;;;24.92
84354;BMP280;74538;43.522;1.516;2024-02-23T14:06:32;98719.28;;;24.95